createdAt,value
2019-02-09T00:00:03.531Z,173.35
2019-02-09T00:00:53.944Z,184.70
2019-02-09T00:01:33.519Z,199.25
2019-02-09T00:02:09.148Z,166.95
2019-02-09T00:02:44.626Z,181.05
2019-02-09T00:03:20.200Z,181.60
2019-02-09T00:03:57.272Z,166.75
2019-02-09T00:04:33.222Z,163.77
2019-02-09T00:05:09.044Z,152.93
2019-02-09T00:05:44.790Z,162.55
2019-02-09T00:06:20.584Z,148.95
2019-02-09T00:06:56.028Z,156.20
2019-02-09T00:07:32.661Z,160.12
2019-02-09T00:08:08.571Z,160.05
2019-02-09T00:08:44.360Z,159.35
2019-02-09T00:09:20.045Z,170.90
2019-02-09T00:09:55.666Z,163.18
2019-02-09T00:10:31.292Z,160.78
2019-02-09T00:11:07.186Z,173.60
2019-02-09T00:11:42.822Z,169.62
2019-02-09T00:12:19.309Z,162.97
2019-02-09T00:12:54.927Z,158.57
2019-02-09T00:13:30.506Z,157.80
2019-02-09T00:14:06.285Z,164.05
2019-02-09T00:14:41.957Z,163.72
2019-02-09T00:15:17.863Z,169.43
2019-02-09T00:15:53.399Z,179.70
2019-02-09T00:16:28.945Z,194.85
2019-02-09T00:17:04.532Z,181.40
2019-02-09T00:17:40.076Z,186.15
2019-02-09T00:18:15.658Z,187.55
2019-02-09T00:18:51.347Z,180.18
2019-02-09T00:19:27.083Z,190.05
2019-02-09T00:20:03.001Z,182.12
2019-02-09T00:20:38.702Z,192.80
2019-02-09T00:21:14.215Z,170.92
2019-02-09T00:21:49.879Z,178.82
2019-02-09T00:22:25.585Z,172.25
2019-02-09T00:23:01.139Z,175.12
2019-02-09T00:23:36.832Z,197.25
2019-02-09T00:24:12.517Z,199.10
2019-02-09T00:24:48.266Z,306.17
2019-02-09T00:25:23.979Z,200.78
2019-02-09T00:25:59.467Z,247.35
2019-02-09T00:26:35.091Z,218.65
2019-02-09T00:27:11.226Z,204.32
2019-02-09T00:27:47.582Z,203.98
2019-02-09T00:28:23.405Z,214.80
2019-02-09T00:28:59.047Z,238.20
2019-02-09T00:29:34.558Z,201.52
2019-02-09T00:30:10.621Z,189.00
2019-02-09T00:30:46.365Z,209.00
2019-02-09T00:31:21.963Z,222.52
2019-02-09T00:31:57.813Z,201.18
2019-02-09T00:32:33.479Z,209.43
2019-02-09T00:33:09.176Z,196.68
2019-02-09T00:33:44.659Z,182.70
2019-02-09T00:34:20.170Z,203.20
2019-02-09T00:34:55.606Z,194.22
2019-02-09T00:35:31.397Z,193.50
2019-02-09T00:36:07.354Z,219.05
2019-02-09T00:36:42.829Z,184.32
2019-02-09T00:37:18.518Z,195.50
2019-02-09T00:37:54.200Z,195.50
2019-02-09T00:38:29.888Z,188.22
2019-02-09T00:39:06.130Z,189.87
2019-02-09T00:39:41.681Z,197.45
2019-02-09T00:40:17.634Z,205.20
2019-02-09T00:40:53.160Z,201.62
2019-02-09T00:41:28.722Z,200.15
2019-02-09T00:42:04.345Z,194.32
2019-02-09T00:42:39.973Z,206.10
2019-02-09T00:43:15.573Z,203.55
2019-02-09T00:43:51.217Z,195.95
2019-02-09T00:44:26.648Z,181.60
2019-02-09T00:45:02.339Z,193.30
2019-02-09T00:45:37.974Z,198.25
2019-02-09T00:46:13.588Z,200.38
2019-02-09T00:46:49.136Z,193.93
2019-02-09T00:47:24.700Z,185.63
2019-02-09T00:48:00.333Z,178.57
2019-02-09T00:48:35.865Z,187.18
2019-02-09T00:49:11.359Z,187.00
2019-02-09T00:49:46.878Z,182.00
2019-02-09T00:50:22.894Z,193.50
2019-02-09T00:50:58.440Z,186.32
2019-02-09T00:51:34.183Z,185.22
2019-02-09T00:52:09.730Z,183.37
2019-02-09T00:52:45.140Z,183.72
2019-02-09T00:53:20.710Z,177.75
2019-02-09T00:53:56.279Z,186.03
2019-02-09T00:54:31.831Z,192.55
2019-02-09T00:55:08.388Z,210.43
2019-02-09T00:55:44.008Z,201.92
2019-02-09T00:56:19.598Z,202.05
2019-02-09T00:56:55.208Z,181.35
2019-02-09T00:57:30.844Z,195.35
2019-02-09T00:58:06.384Z,185.75
2019-02-09T00:58:41.957Z,199.57
2019-02-09T00:59:17.482Z,189.20
2019-02-09T00:59:54.202Z,199.27
2019-02-09T01:00:31.564Z,236.95
2019-02-09T01:01:07.525Z,210.23
2019-02-09T01:01:42.980Z,186.77
2019-02-09T01:02:18.591Z,201.85
2019-02-09T01:02:54.621Z,207.67
2019-02-09T01:03:30.277Z,219.77
2019-02-09T01:04:06.019Z,191.25
2019-02-09T01:04:41.627Z,219.53
2019-02-09T01:05:18.698Z,203.70
2019-02-09T01:05:54.555Z,198.50
2019-02-09T01:06:30.107Z,196.30
2019-02-09T01:07:05.722Z,208.55
2019-02-09T01:07:41.411Z,205.25
2019-02-09T01:08:17.453Z,223.05
2019-02-09T01:08:53.052Z,210.10
2019-02-09T01:09:28.580Z,208.72
2019-02-09T01:10:04.329Z,204.47
2019-02-09T01:10:40.286Z,211.07
2019-02-09T01:11:15.814Z,213.75
2019-02-09T01:11:51.229Z,205.77
2019-02-09T01:12:26.749Z,200.90
2019-02-09T01:13:02.120Z,198.25
2019-02-09T01:13:38.036Z,200.30
2019-02-09T01:14:13.750Z,200.35
2019-02-09T01:14:49.282Z,195.85
2019-02-09T01:15:25.918Z,204.57
2019-02-09T01:16:01.464Z,210.60
2019-02-09T01:16:36.910Z,205.95
2019-02-09T01:17:12.451Z,212.68
2019-02-09T01:17:48.190Z,202.85
2019-02-09T01:18:23.620Z,195.30
2019-02-09T01:18:59.143Z,178.68
2019-02-09T01:19:34.671Z,177.02
2019-02-09T01:20:12.821Z,186.67
2019-02-09T01:20:48.889Z,186.82
2019-02-09T01:21:24.458Z,175.50
2019-02-09T01:22:00.066Z,184.52
2019-02-09T01:22:35.618Z,184.95
2019-02-09T01:23:11.259Z,168.80
2019-02-09T01:23:47.143Z,196.32
2019-02-09T01:24:22.815Z,196.95
2019-02-09T01:24:58.398Z,205.03
2019-02-09T01:25:34.200Z,209.98
2019-02-09T01:26:09.853Z,210.70
2019-02-09T01:26:45.249Z,207.43
2019-02-09T01:27:20.691Z,182.43
2019-02-09T01:27:56.656Z,186.12
2019-02-09T01:28:32.290Z,187.70
2019-02-09T01:29:07.792Z,197.68
2019-02-09T01:29:43.343Z,202.78
2019-02-09T01:30:21.222Z,204.90
2019-02-09T01:30:56.760Z,219.87
2019-02-09T01:31:32.280Z,224.07
2019-02-09T01:32:07.937Z,210.53
2019-02-09T01:32:43.731Z,208.97
2019-02-09T01:33:19.321Z,206.80
2019-02-09T01:33:54.753Z,184.18
2019-02-09T01:34:30.443Z,215.97
2019-02-09T01:35:07.604Z,208.78
2019-02-09T01:35:43.735Z,219.20
2019-02-09T01:36:19.248Z,215.40
2019-02-09T01:36:55.077Z,216.27
2019-02-09T01:37:30.624Z,190.10
2019-02-09T01:38:06.584Z,192.75
2019-02-09T01:38:42.124Z,195.32
2019-02-09T01:39:17.710Z,195.50
2019-02-09T01:39:53.249Z,196.65
2019-02-09T01:40:29.351Z,183.42
2019-02-09T01:41:05.176Z,196.98
2019-02-09T01:41:40.742Z,179.50
2019-02-09T01:42:16.380Z,181.82
2019-02-09T01:42:52.531Z,186.97
2019-02-09T01:43:28.498Z,177.40
2019-02-09T01:44:04.273Z,179.15
2019-02-09T01:44:39.956Z,179.03
2019-02-09T01:45:24.528Z,178.38
2019-02-09T01:46:00.170Z,177.25
2019-02-09T01:46:35.907Z,175.72
2019-02-09T01:47:11.528Z,178.62
2019-02-09T01:47:46.958Z,177.82
2019-02-09T01:48:22.468Z,181.90
2019-02-09T01:48:58.013Z,181.90
2019-02-09T01:49:33.697Z,181.43
2019-02-09T01:50:10.857Z,190.88
2019-02-09T01:50:46.579Z,179.47
2019-02-09T01:51:22.008Z,178.47
2019-02-09T01:51:57.632Z,177.45
2019-02-09T01:52:33.354Z,169.05
2019-02-09T01:53:08.797Z,169.93
2019-02-09T01:53:44.430Z,159.35
2019-02-09T01:54:19.961Z,156.65
2019-02-09T01:54:55.525Z,158.85
2019-02-09T01:55:31.428Z,161.45
2019-02-09T01:56:07.021Z,153.10
2019-02-09T01:56:42.740Z,162.43
2019-02-09T01:57:18.341Z,162.95
2019-02-09T01:57:53.993Z,158.15
2019-02-09T01:58:29.740Z,160.48
2019-02-09T01:59:05.447Z,144.77
2019-02-09T01:59:40.992Z,158.72
2019-02-09T10:23:55.508Z,28.92
2019-02-09T10:24:32.499Z,28.32
2019-02-09T10:25:23.166Z,33.02
2019-02-09T10:26:05.714Z,29.77
2019-02-09T10:26:51.897Z,33.73
2019-02-09T10:27:34.010Z,31.27
2019-02-09T10:28:16.549Z,31.95
2019-02-09T10:28:59.712Z,33.48
2019-02-09T10:29:44.809Z,33.58
2019-02-09T10:30:31.479Z,26.27
2019-02-09T10:31:18.700Z,31.48
2019-02-09T10:32:05.019Z,32.20
2019-02-09T10:32:53.862Z,33.15
2019-02-09T10:33:43.611Z,32.88
2019-02-09T10:34:29.302Z,22.25
2019-02-09T10:35:16.266Z,34.08
2019-02-09T10:36:04.350Z,33.58
2019-02-09T10:36:48.268Z,28.67
2019-02-09T10:37:36.726Z,30.82
2019-02-09T10:38:26.840Z,28.57
2019-02-09T10:39:19.892Z,30.00
2019-02-09T10:40:05.507Z,31.30
2019-02-09T10:40:42.346Z,27.80
2019-02-09T10:41:23.261Z,25.88
2019-02-09T10:42:01.150Z,22.87
2019-02-09T10:42:36.779Z,22.62
2019-02-09T10:43:20.600Z,21.62
2019-02-09T10:43:58.074Z,24.00
2019-02-09T10:44:45.782Z,22.07
2019-02-09T10:45:23.339Z,24.23
2019-02-09T10:46:01.689Z,23.07
2019-02-09T10:46:50.411Z,24.07
2019-02-09T10:47:37.018Z,23.55
2019-02-09T10:48:17.900Z,23.47
2019-02-09T10:49:01.471Z,25.92
2019-02-09T10:49:43.597Z,25.10
2019-02-09T10:50:26.760Z,22.00
2019-02-09T10:51:02.942Z,26.62
2019-02-09T10:51:40.459Z,23.27
2019-02-09T10:52:33.198Z,24.98
2019-02-09T10:53:13.111Z,23.83
2019-02-09T10:53:59.029Z,21.65
2019-02-09T10:54:48.963Z,24.20
2019-02-09T10:55:25.941Z,18.10
2019-02-09T10:56:01.729Z,21.07
2019-02-09T10:56:37.391Z,18.02
2019-02-09T10:57:12.899Z,20.00
2019-02-09T10:57:48.328Z,24.55
2019-02-09T10:58:25.139Z,21.90
2019-02-09T10:59:12.166Z,18.37
2019-02-09T10:59:47.631Z,20.08
2019-02-09T11:00:32.881Z,17.92
2019-02-09T11:01:15.343Z,16.35
2019-02-09T11:01:51.356Z,14.83
2019-02-09T11:02:27.424Z,20.32
2019-02-09T11:03:03.443Z,21.65
2019-02-09T11:03:44.102Z,20.30
2019-02-09T11:04:22.050Z,22.05
2019-02-09T11:05:13.629Z,22.27
2019-02-09T11:05:50.331Z,22.07
2019-02-09T11:06:26.489Z,20.43
2019-02-09T11:07:03.242Z,23.07
2019-02-09T11:07:39.224Z,23.07
2019-02-09T11:08:24.462Z,22.67
2019-02-09T11:09:02.046Z,19.87
2019-02-09T11:09:37.964Z,20.55
2019-02-09T11:10:18.689Z,23.22
2019-02-09T11:10:54.451Z,23.45
2019-02-09T11:11:30.606Z,25.25
2019-02-09T11:12:07.171Z,20.88
2019-02-09T11:12:43.246Z,20.23
2019-02-09T11:13:20.465Z,25.12
2019-02-09T11:13:56.325Z,21.95
2019-02-09T11:14:32.527Z,20.70
2019-02-09T11:15:15.063Z,21.07
2019-02-09T11:15:52.233Z,24.47
2019-02-09T11:16:30.872Z,23.45
2019-02-09T11:17:18.061Z,25.95
2019-02-09T11:17:57.123Z,22.93
2019-02-09T11:18:37.572Z,22.17
2019-02-09T11:19:16.705Z,23.15
2019-02-09T11:19:54.825Z,24.95
2019-02-09T11:20:46.365Z,21.77
2019-02-09T11:21:27.673Z,26.40
2019-02-09T11:22:11.063Z,21.15
2019-02-09T11:22:49.488Z,26.75
2019-02-09T11:23:25.665Z,23.67
2019-02-09T11:24:01.364Z,25.65
2019-02-09T11:24:37.524Z,25.70
2019-02-09T11:25:14.306Z,25.68
2019-02-09T11:25:50.403Z,25.20
2019-02-09T11:26:26.975Z,24.98
2019-02-09T11:27:14.106Z,24.20
2019-02-09T11:28:01.439Z,22.52
2019-02-09T11:28:45.525Z,24.40
2019-02-09T11:29:37.557Z,23.15
2019-02-09T11:30:20.023Z,24.60
2019-02-09T11:30:56.945Z,22.10
2019-02-09T11:31:32.739Z,23.27
2019-02-09T11:32:11.391Z,24.50
2019-02-09T11:32:47.864Z,22.52
2019-02-09T11:33:24.185Z,26.00
2019-02-09T11:34:00.444Z,21.15
2019-02-09T11:34:37.242Z,20.95
2019-02-09T11:35:14.984Z,22.40
2019-02-09T11:35:51.823Z,20.02
2019-02-09T11:36:27.983Z,24.23
2019-02-09T11:37:08.466Z,27.02
2019-02-09T11:37:45.043Z,19.87
2019-02-09T11:38:24.029Z,19.42
2019-02-09T11:39:00.788Z,25.40
2019-02-09T11:39:37.223Z,23.38
2019-02-09T11:40:14.783Z,23.07
2019-02-09T11:40:52.930Z,24.25
2019-02-09T11:41:29.582Z,22.65
2019-02-09T11:42:05.587Z,23.83
2019-02-09T11:42:41.667Z,23.80
2019-02-09T11:43:17.442Z,28.98
2019-02-09T11:43:53.322Z,27.67
2019-02-09T11:44:29.322Z,28.35
2019-02-09T11:45:05.310Z,26.65
2019-02-09T11:45:41.355Z,24.30
2019-02-09T11:46:17.305Z,25.80
2019-02-09T11:46:53.204Z,27.42
2019-02-09T11:47:28.722Z,29.92
2019-02-09T11:48:04.670Z,29.10
2019-02-09T11:48:40.603Z,28.62
2019-02-09T11:49:16.902Z,25.23
2019-02-09T11:49:52.834Z,25.08
2019-02-09T11:50:28.476Z,24.63
2019-02-09T11:51:04.242Z,22.58
2019-02-09T11:51:39.842Z,25.12
2019-02-09T11:52:15.414Z,24.60
2019-02-09T11:52:51.104Z,26.33
2019-02-09T11:53:26.662Z,32.98
2019-02-09T11:54:02.263Z,28.27
2019-02-09T11:54:37.870Z,28.35
2019-02-09T11:55:13.605Z,28.50
2019-02-09T11:55:50.744Z,26.97
2019-02-09T11:56:26.602Z,27.60
2019-02-09T11:57:02.271Z,25.77
2019-02-09T11:57:38.111Z,28.73
2019-02-09T11:58:13.703Z,29.27
2019-02-09T11:58:49.542Z,30.27
2019-02-09T11:59:25.754Z,27.48
2019-02-09T12:00:01.610Z,28.17
2019-02-09T12:00:42.801Z,28.25
2019-02-09T12:01:18.203Z,34.33
2019-02-09T12:01:53.657Z,28.92
2019-02-09T12:02:29.649Z,29.20
2019-02-09T12:03:14.813Z,29.92
2019-02-09T12:03:43.045Z,28.77
2019-02-09T12:04:18.744Z,27.05
2019-02-09T12:04:55.216Z,32.90
2019-02-09T12:05:31.302Z,33.88
2019-02-09T12:06:07.445Z,34.00
2019-02-09T12:06:43.563Z,31.30
2019-02-09T12:07:19.350Z,31.48
2019-02-09T12:07:56.577Z,30.02
2019-02-09T12:08:33.234Z,27.90
2019-02-09T12:09:10.549Z,37.35
2019-02-09T12:09:47.265Z,23.85
2019-02-09T12:10:23.884Z,26.87
2019-02-09T12:10:59.622Z,25.97
2019-02-09T12:11:35.734Z,24.67
2019-02-09T12:12:11.463Z,24.37
2019-02-09T12:12:47.954Z,24.15
2019-02-09T12:13:24.984Z,21.15
2019-02-09T12:14:00.504Z,24.90
2019-02-09T12:14:36.245Z,22.25
2019-02-09T12:15:16.143Z,22.77
2019-02-09T12:15:52.264Z,23.67
2019-02-09T12:16:28.143Z,21.00
2019-02-09T12:17:04.022Z,21.33
2019-02-09T12:17:39.502Z,26.68
2019-02-09T12:18:15.647Z,25.52
2019-02-09T12:18:51.482Z,25.50
2019-02-09T12:19:27.144Z,23.65
2019-02-09T12:20:03.182Z,24.70
2019-02-09T12:20:38.823Z,27.77
2019-02-09T12:21:14.483Z,27.62
2019-02-09T12:21:50.123Z,29.27
2019-02-09T12:22:25.522Z,28.15
2019-02-09T12:23:01.363Z,20.23
2019-02-09T12:23:37.486Z,23.42
2019-02-09T12:24:13.263Z,25.25
2019-02-09T12:24:49.025Z,24.67
2019-02-09T12:25:28.602Z,24.47
2019-02-09T12:26:04.453Z,21.23
2019-02-09T12:26:40.817Z,24.43
2019-02-09T12:27:17.006Z,24.00
2019-02-09T12:27:53.163Z,27.17
2019-02-09T12:28:28.883Z,30.10
2019-02-09T12:29:04.704Z,25.08
2019-02-09T12:29:40.782Z,32.63
2019-02-09T12:30:22.404Z,23.92
2019-02-09T12:30:58.024Z,23.92
2019-02-09T12:31:33.724Z,25.02
2019-02-09T12:32:09.463Z,26.00
2019-02-09T12:32:45.540Z,26.95
2019-02-09T12:33:23.394Z,28.60
2019-02-09T12:33:59.711Z,25.02
2019-02-09T12:34:35.609Z,22.55
2019-02-09T12:35:12.910Z,27.35
2019-02-09T12:35:48.887Z,24.00
2019-02-09T12:36:24.863Z,22.37
2019-02-09T12:37:00.485Z,23.60
2019-02-09T12:37:36.383Z,25.27
2019-02-09T12:38:12.149Z,21.20
2019-02-09T12:38:47.923Z,24.72
2019-02-09T12:39:23.822Z,24.37
2019-02-09T12:39:59.582Z,22.52
2019-02-09T12:40:35.533Z,19.95
2019-02-09T12:41:11.462Z,21.40
2019-02-09T12:41:47.442Z,23.10
2019-02-09T12:42:23.212Z,23.15
2019-02-09T12:42:59.562Z,23.67
2019-02-09T12:43:35.862Z,21.77
2019-02-09T12:44:11.506Z,15.38
2019-02-09T12:44:47.242Z,23.30
2019-02-09T12:45:23.602Z,25.68
2019-02-09T12:45:59.464Z,19.55
2019-02-09T12:46:35.331Z,21.10
2019-02-09T12:47:10.992Z,17.17
2019-02-09T12:47:47.444Z,18.73
2019-02-09T12:48:23.217Z,21.42
2019-02-09T12:48:58.904Z,26.25
2019-02-09T12:49:34.684Z,19.45
2019-02-09T12:50:12.052Z,16.62
2019-02-09T12:50:48.243Z,18.23
2019-02-09T12:51:23.783Z,19.20
2019-02-09T12:51:59.605Z,21.68
2019-02-09T12:52:36.424Z,20.82
2019-02-09T12:53:12.424Z,22.02
2019-02-09T12:53:48.083Z,41.45
2019-02-09T12:54:23.923Z,23.90
2019-02-09T12:55:00.556Z,20.48
2019-02-09T12:55:36.450Z,24.27
2019-02-09T12:56:12.083Z,23.87
2019-02-09T12:56:47.983Z,24.55
2019-02-09T12:57:24.194Z,22.93
2019-02-09T12:58:00.719Z,19.92
2019-02-09T12:58:36.383Z,23.42
2019-02-09T12:59:15.114Z,20.90
2019-02-09T12:59:49.582Z,23.57
2019-02-09T13:00:31.022Z,23.05
2019-02-09T13:01:07.204Z,19.52
2019-02-09T13:01:43.285Z,22.60
2019-02-09T13:02:18.945Z,22.37
2019-02-09T13:02:55.322Z,24.40
2019-02-09T13:03:31.676Z,26.33
2019-02-09T13:04:08.229Z,19.67
2019-02-09T13:04:43.825Z,21.95
2019-02-09T13:05:19.602Z,24.63
2019-02-09T13:05:55.362Z,18.32
2019-02-09T13:06:31.102Z,22.22
2019-02-09T13:07:07.426Z,24.00
2019-02-09T13:07:43.906Z,22.27
2019-02-09T13:08:19.541Z,23.35
2019-02-09T13:08:55.432Z,23.62
2019-02-09T13:09:31.183Z,22.17
2019-02-09T13:10:08.493Z,21.97
2019-02-09T13:10:44.823Z,23.55
2019-02-09T13:11:20.873Z,24.92
2019-02-09T13:11:56.614Z,25.82
2019-02-09T13:12:32.242Z,32.95
2019-02-09T13:13:08.444Z,22.75
2019-02-09T13:13:44.206Z,22.67
2019-02-09T13:14:20.151Z,19.32
2019-02-09T13:14:56.209Z,21.68
2019-02-09T13:15:31.982Z,24.30
2019-02-09T13:16:08.813Z,23.73
2019-02-09T13:16:44.651Z,21.97
2019-02-09T13:17:20.283Z,18.20
2019-02-09T13:17:56.403Z,23.18
2019-02-09T13:18:32.083Z,25.02
2019-02-09T13:19:09.924Z,22.07
2019-02-09T13:19:46.068Z,25.00
2019-02-09T13:20:23.963Z,21.70
2019-02-09T13:20:59.722Z,23.02
2019-02-09T13:21:35.702Z,24.55
2019-02-09T13:22:11.662Z,21.33
2019-02-09T13:22:47.602Z,30.50
2019-02-09T13:23:24.182Z,27.98
2019-02-09T13:24:00.590Z,29.98
2019-02-09T13:24:36.946Z,29.82
2019-02-09T13:25:12.724Z,23.85
2019-02-09T13:25:48.682Z,28.42
2019-02-09T13:26:24.542Z,24.02
2019-02-09T13:27:00.311Z,24.18
2019-02-09T13:27:36.290Z,20.95
2019-02-09T13:28:12.289Z,22.32
2019-02-09T13:28:48.185Z,26.85
2019-02-09T13:29:34.002Z,22.05
2019-02-09T13:30:12.783Z,30.85
2019-02-09T13:30:48.570Z,32.98
2019-02-09T13:31:33.236Z,28.00
2019-02-09T13:32:11.228Z,27.50
2019-02-09T13:32:49.979Z,41.73
2019-02-09T13:33:38.846Z,22.35
2019-02-09T13:34:11.765Z,24.82
2019-02-09T13:34:47.870Z,22.77
2019-02-09T13:35:23.744Z,23.12
2019-02-09T13:36:07.717Z,20.05
2019-02-09T13:36:50.641Z,21.27
2019-02-09T13:37:38.287Z,18.67
2019-02-09T13:38:26.203Z,25.52
2019-02-09T13:39:11.966Z,23.05
2019-02-09T13:39:54.064Z,17.37
2019-02-09T13:40:40.053Z,19.10
2019-02-09T13:41:29.629Z,18.35
2019-02-09T13:42:20.593Z,18.20
2019-02-09T13:43:10.740Z,17.85
2019-02-09T13:43:57.371Z,17.02
2019-02-09T13:44:53.503Z,16.62
2019-02-09T13:45:58.895Z,18.80
2019-02-09T13:46:39.075Z,20.85
2019-02-09T13:47:33.468Z,19.48
2019-02-09T13:48:17.581Z,17.45
2019-02-09T13:49:00.089Z,20.52
2019-02-09T13:49:42.242Z,19.05
2019-02-09T13:50:19.869Z,18.98
2019-02-09T13:50:59.510Z,18.62
2019-02-09T13:51:38.257Z,20.20
2019-02-09T13:52:15.049Z,20.02
2019-02-09T13:52:51.625Z,19.50
2019-02-09T13:53:28.662Z,19.82
2019-02-09T13:54:16.064Z,17.20
2019-02-09T13:54:53.132Z,20.20
2019-02-09T13:55:33.502Z,8.43
2019-02-09T13:56:12.328Z,17.92
2019-02-09T13:56:56.779Z,20.60
2019-02-09T13:57:46.441Z,12.63
2019-02-09T13:58:29.844Z,18.73
2019-02-09T13:59:12.262Z,14.28
2019-02-09T13:59:59.762Z,14.68
2019-02-09T14:00:44.778Z,13.68
2019-02-09T14:01:28.101Z,19.42
2019-02-09T14:02:09.982Z,10.60
2019-02-09T14:02:55.229Z,14.13
2019-02-09T14:03:35.922Z,11.95
2019-02-09T14:04:14.650Z,14.43
2019-02-09T14:04:50.723Z,17.15
2019-02-09T14:05:34.034Z,15.98
2019-02-09T14:06:28.527Z,13.28
2019-02-09T14:07:04.322Z,16.57
2019-02-09T14:07:39.925Z,18.92
2019-02-09T14:08:15.791Z,17.48
2019-02-09T14:08:58.044Z,21.15
2019-02-09T14:09:35.603Z,17.20
2019-02-09T14:10:12.404Z,24.63
2019-02-09T14:10:48.018Z,14.13
2019-02-09T14:11:23.722Z,15.08
2019-02-09T14:11:59.527Z,19.23
2019-02-09T14:12:35.364Z,15.28
2019-02-09T14:13:14.738Z,22.00
2019-02-09T14:13:48.802Z,15.50
2019-02-09T14:14:24.861Z,20.55
2019-02-09T14:15:05.343Z,19.77
2019-02-09T14:15:41.002Z,16.05
2019-02-09T14:16:16.802Z,10.80
2019-02-09T14:16:52.854Z,23.05
2019-02-09T14:17:29.022Z,14.80
2019-02-09T14:18:07.864Z,22.93
2019-02-09T14:18:57.092Z,17.45
2019-02-09T14:19:35.526Z,18.52
2019-02-09T14:20:13.567Z,25.05
2019-02-09T14:20:49.403Z,18.45
2019-02-09T14:21:25.181Z,15.00
2019-02-09T14:22:01.009Z,15.10
2019-02-09T14:22:36.982Z,12.65
2019-02-09T14:23:12.825Z,16.17
2019-02-09T14:23:48.429Z,20.20
2019-02-09T14:24:24.163Z,21.02
2019-02-09T14:24:59.766Z,22.85
2019-02-09T14:25:35.477Z,17.12
2019-02-09T14:26:10.887Z,15.63
2019-02-09T14:26:50.529Z,15.63
2019-02-09T14:27:27.197Z,17.00
2019-02-09T14:28:05.026Z,18.52
2019-02-09T14:28:40.329Z,17.65
2019-02-09T14:29:15.931Z,19.25
2019-02-09T14:29:52.015Z,18.70
2019-02-09T14:30:30.507Z,18.37
2019-02-09T14:31:07.969Z,17.85
2019-02-09T14:31:43.781Z,15.85
2019-02-09T14:32:19.493Z,17.95
2019-02-09T14:32:55.358Z,17.65
2019-02-09T14:33:34.129Z,15.93
2019-02-09T14:34:10.690Z,14.60
2019-02-09T14:34:46.247Z,14.78
2019-02-09T14:35:22.415Z,15.65
2019-02-09T14:36:01.447Z,14.40
2019-02-09T14:36:40.826Z,19.05
2019-02-09T14:37:16.867Z,18.50
2019-02-09T14:37:58.587Z,17.30
2019-02-09T14:38:34.367Z,16.97
2019-02-09T14:39:13.170Z,14.90
2019-02-09T14:39:48.586Z,15.30
2019-02-09T14:40:28.697Z,14.28
2019-02-09T14:41:07.074Z,16.25
2019-02-09T14:41:42.626Z,13.48
2019-02-09T14:42:21.507Z,9.40
2019-02-09T14:42:58.923Z,13.00
2019-02-09T14:43:37.652Z,11.20
2019-02-09T14:44:13.270Z,15.60
2019-02-09T14:44:55.594Z,15.15
2019-02-09T14:45:35.947Z,14.30
2019-02-09T14:46:11.547Z,17.15
2019-02-09T14:46:57.147Z,12.28
2019-02-09T14:47:39.563Z,15.43
2019-02-09T14:48:18.287Z,10.08
2019-02-09T14:48:56.006Z,10.55
2019-02-09T14:49:31.327Z,16.35
2019-02-09T14:50:11.382Z,12.05
2019-02-09T14:50:46.615Z,13.58
2019-02-09T14:51:22.615Z,17.45
2019-02-09T14:51:58.347Z,16.42
2019-02-09T14:52:42.509Z,17.57
2019-02-09T14:53:20.370Z,15.23
2019-02-09T14:53:55.867Z,13.70
2019-02-09T14:54:31.574Z,13.50
2019-02-09T14:55:08.695Z,13.48
2019-02-09T14:55:44.234Z,16.15
2019-02-09T14:56:20.115Z,12.40
2019-02-09T14:56:55.722Z,12.98
2019-02-09T14:57:31.234Z,13.75
2019-02-09T14:58:07.195Z,12.95
2019-02-09T14:58:44.654Z,16.23
2019-02-09T14:59:20.983Z,15.90
2019-02-09T14:59:58.336Z,13.13
2019-02-09T15:00:43.255Z,10.98
2019-02-09T15:01:21.062Z,13.08
2019-02-09T15:01:58.495Z,16.97
2019-02-09T15:02:36.197Z,11.88
2019-02-09T15:03:16.936Z,13.43
2019-02-09T15:04:02.486Z,15.20
2019-02-09T15:04:34.104Z,11.03
2019-02-09T15:05:12.776Z,19.80
2019-02-09T15:05:50.518Z,15.75
2019-02-09T15:06:28.414Z,12.65
2019-02-09T15:07:08.235Z,15.48
2019-02-09T15:07:46.755Z,18.65
2019-02-09T15:08:24.142Z,14.47
2019-02-09T15:09:04.422Z,17.07
2019-02-09T15:09:44.042Z,16.05
2019-02-09T15:10:27.202Z,13.50
2019-02-09T15:11:29.336Z,15.28
2019-02-09T15:12:39.842Z,18.12
2019-02-09T15:13:24.646Z,19.23
2019-02-09T15:14:00.856Z,13.45
2019-02-09T15:14:36.670Z,13.55
2019-02-09T15:15:35.895Z,17.82
2019-02-09T15:16:37.834Z,16.48
2019-02-09T15:17:13.838Z,15.83
2019-02-09T15:17:49.277Z,15.48
2019-02-09T15:18:25.155Z,17.02
2019-02-09T15:19:00.970Z,13.40
2019-02-09T15:19:40.063Z,15.25
2019-02-09T15:20:18.565Z,13.68
2019-02-09T15:20:57.110Z,16.00
2019-02-09T15:21:36.715Z,15.65
2019-02-09T15:22:12.495Z,14.33
2019-02-09T15:22:48.174Z,13.88
2019-02-09T15:23:24.223Z,13.72
2019-02-09T15:24:00.456Z,12.75
2019-02-09T15:24:36.895Z,15.48
2019-02-09T15:25:12.755Z,16.77
2019-02-09T15:25:48.143Z,20.88
2019-02-09T15:26:23.716Z,16.10
2019-02-09T15:27:10.470Z,16.93
2019-02-09T15:27:56.535Z,10.38
2019-02-09T15:28:38.203Z,11.22
2019-02-09T15:29:18.375Z,15.48
2019-02-09T15:29:54.115Z,13.10
2019-02-09T15:30:30.655Z,14.28
2019-02-09T15:31:09.123Z,17.32
2019-02-09T15:31:45.258Z,17.75
2019-02-09T15:32:21.035Z,17.48
2019-02-09T15:32:56.840Z,18.40
2019-02-09T15:33:44.955Z,18.45
2019-02-09T15:34:21.325Z,18.30
2019-02-09T15:35:03.355Z,19.17
2019-02-09T15:35:39.777Z,19.40
2019-02-09T15:36:15.500Z,19.45
2019-02-09T15:36:51.276Z,17.42
2019-02-09T15:37:27.095Z,19.05
2019-02-09T15:38:02.736Z,19.75
2019-02-09T15:38:38.235Z,19.17
2019-02-09T15:39:14.135Z,15.75
2019-02-09T15:39:49.734Z,20.05
2019-02-09T15:40:31.391Z,18.45
2019-02-09T15:41:07.054Z,18.87
2019-02-09T15:41:42.675Z,16.50
2019-02-09T15:42:18.555Z,18.02
2019-02-09T15:42:54.295Z,23.05
2019-02-09T15:43:30.199Z,20.00
2019-02-09T15:44:10.536Z,19.12
2019-02-09T15:44:46.355Z,21.02
2019-02-09T15:45:22.595Z,22.98
2019-02-09T15:45:58.823Z,16.87
2019-02-09T15:46:35.063Z,40.67
2019-02-09T15:47:14.326Z,89.97
2019-02-09T15:47:50.765Z,62.93
2019-02-09T15:48:26.586Z,41.20
2019-02-09T15:49:02.676Z,29.27
2019-02-09T15:49:38.795Z,20.85
2019-02-09T15:50:17.497Z,19.73
2019-02-09T15:50:53.315Z,21.65
2019-02-09T15:51:40.879Z,19.73
2019-02-09T15:52:16.935Z,18.80
2019-02-09T15:52:53.316Z,19.17
2019-02-09T15:53:29.136Z,19.17
2019-02-09T15:54:29.495Z,21.33
2019-02-09T15:55:08.174Z,21.12
2019-02-09T15:55:43.855Z,21.95
2019-02-09T15:56:20.627Z,24.10
2019-02-09T15:56:56.375Z,19.70
2019-02-09T15:57:31.835Z,21.93
2019-02-09T15:58:08.162Z,22.55
2019-02-09T15:58:43.922Z,23.42
2019-02-09T15:59:19.814Z,24.18
2019-02-09T15:59:55.500Z,19.32
2019-02-09T16:00:31.997Z,18.95
2019-02-09T16:01:10.539Z,18.02
2019-02-09T16:01:46.554Z,20.37
2019-02-09T16:02:22.971Z,21.75
2019-02-09T16:02:58.752Z,18.85
2019-02-09T16:03:34.335Z,16.12
2019-02-09T16:04:18.055Z,18.95
2019-02-09T16:05:00.523Z,16.77
2019-02-09T16:05:36.712Z,19.82
2019-02-09T16:06:12.331Z,16.62
2019-02-09T16:06:48.373Z,21.87
2019-02-09T16:07:24.031Z,19.60
2019-02-09T16:07:59.513Z,21.90
2019-02-09T16:08:35.259Z,20.77
2019-02-09T16:09:13.354Z,20.55
2019-02-09T16:09:49.231Z,21.07
2019-02-09T16:10:25.380Z,17.95
2019-02-09T16:11:01.012Z,18.60
2019-02-09T16:11:36.720Z,18.52
2019-02-09T16:12:12.232Z,20.00
2019-02-09T16:12:48.154Z,19.90
2019-02-09T16:13:23.662Z,18.90
2019-02-09T16:13:59.351Z,19.05
2019-02-09T16:14:34.872Z,18.75
2019-02-09T16:15:13.232Z,20.55
2019-02-09T16:15:48.675Z,17.52
2019-02-09T16:16:24.196Z,19.37
2019-02-09T16:16:59.691Z,22.48
2019-02-09T16:17:35.271Z,17.90
2019-02-09T16:18:10.793Z,20.40
2019-02-09T16:18:46.314Z,22.13
2019-02-09T16:19:22.011Z,21.00
2019-02-09T16:20:06.991Z,18.85
2019-02-09T16:20:42.767Z,19.10
2019-02-09T16:21:18.332Z,21.15
2019-02-09T16:21:53.852Z,22.70
2019-02-09T16:22:29.474Z,21.50
2019-02-09T16:23:05.612Z,24.02
2019-02-09T16:23:41.411Z,20.00
2019-02-09T16:24:17.019Z,22.70
2019-02-09T16:24:52.709Z,19.87
2019-02-09T16:25:28.491Z,20.77
2019-02-09T16:26:03.791Z,24.72